sensor_id;sensor_type;location;lat;lon;timestamp;pressure;altitude;pressure_sealevel;temperature;humidity
38780;BME280;29273;49.962;9.768;2023-07-29T00:00:52;99244.34;;;20.82;66.38
38780;BME280;29273;49.962;9.768;2023-07-29T00:03:17;99249.16;;;20.80;66.46
38780;BME280;29273;49.962;9.768;2023-07-29T00:05:43;99237.09;;;20.77;66.35
38780;BME280;29273;49.962;9.768;2023-07-29T00:08:08;99235.47;;;20.76;66.35
38780;BME280;29273;49.962;9.768;2023-07-29T00:10:37;99237.91;;;20.78;65.89
38780;BME280;29273;49.962;9.768;2023-07-29T00:13:04;99241.72;;;20.72;66.43
38780;BME280;29273;49.962;9.768;2023-07-29T00:15:29;99233.41;;;20.68;66.61
38780;BME280;29273;49.962;9.768;2023-07-29T00:17:55;99238.28;;;20.66;66.57
38780;BME280;29273;49.962;9.768;2023-07-29T00:20:20;99242.03;;;20.65;66.32
38780;BME280;29273;49.962;9.768;2023-07-29T00:22:46;99243.38;;;20.62;66.56
38780;BME280;29273;49.962;9.768;2023-07-29T00:25:11;99241.75;;;20.61;66.25
38780;BME280;29273;49.962;9.768;2023-07-29T00:27:37;99245.84;;;20.59;66.40
38780;BME280;29273;49.962;9.768;2023-07-29T00:30:03;99244.22;;;20.58;66.17
38780;BME280;29273;49.962;9.768;2023-07-29T00:32:29;99242.59;;;20.57;66.26
38780;BME280;29273;49.962;9.768;2023-07-29T00:34:55;99240.50;;;20.54;66.13
38780;BME280;29273;49.962;9.768;2023-07-29T00:37:21;99244.53;;;20.51;65.75
38780;BME280;29273;49.962;9.768;2023-07-29T00:39:46;99245.63;;;20.50;66.03
38780;BME280;29273;49.962;9.768;2023-07-29T00:42:12;99241.63;;;20.47;66.17
38780;BME280;29273;49.962;9.768;2023-07-29T00:44:37;99242.97;;;20.45;65.99
38780;BME280;29273;49.962;9.768;2023-07-29T00:47:04;99243.50;;;20.47;65.85
38780;BME280;29273;49.962;9.768;2023-07-29T00:49:31;99244.34;;;20.42;66.42
38780;BME280;29273;49.962;9.768;2023-07-29T00:51:57;99237.34;;;20.41;66.32
38780;BME280;29273;49.962;9.768;2023-07-29T00:54:24;99238.72;;;20.39;66.71
38780;BME280;29273;49.962;9.768;2023-07-29T00:56:50;99241.69;;;20.37;66.78
38780;BME280;29273;49.962;9.768;2023-07-29T00:59:16;99246.81;;;20.39;67.17
38780;BME280;29273;49.962;9.768;2023-07-29T01:01:42;99252.19;;;20.39;67.20
38780;BME280;29273;49.962;9.768;2023-07-29T01:04:07;99247.59;;;20.39;67.16
38780;BME280;29273;49.962;9.768;2023-07-29T01:09:36;99242.69;;;20.46;66.30
38780;BME280;29273;49.962;9.768;2023-07-29T01:12:22;99233.31;;;20.44;66.23
38780;BME280;29273;49.962;9.768;2023-07-29T01:15:09;99226.31;;;20.43;66.20
38780;BME280;29273;49.962;9.768;2023-07-29T01:17:42;99214.50;;;20.44;66.80
38780;BME280;29273;49.962;9.768;2023-07-29T01:20:11;99217.47;;;20.42;67.01
38780;BME280;29273;49.962;9.768;2023-07-29T01:22:39;99215.03;;;20.41;67.43
38780;BME280;29273;49.962;9.768;2023-07-29T01:25:05;99209.66;;;20.41;67.52
38780;BME280;29273;49.962;9.768;2023-07-29T01:27:31;99212.06;;;20.42;67.46
38780;BME280;29273;49.962;9.768;2023-07-29T01:29:58;99210.19;;;20.43;67.30
38780;BME280;29273;49.962;9.768;2023-07-29T01:33:34;99202.91;;;20.48;66.50
38780;BME280;29273;49.962;9.768;2023-07-29T01:38:33;99209.94;;;20.39;66.49
38780;BME280;29273;49.962;9.768;2023-07-29T01:41:06;99211.53;;;20.45;66.98
38780;BME280;29273;49.962;9.768;2023-07-29T01:43:32;99204.97;;;20.22;67.03
38780;BME280;29273;49.962;9.768;2023-07-29T01:45:58;99203.53;;;20.35;67.68
38780;BME280;29273;49.962;9.768;2023-07-29T01:48:24;99205.13;;;20.36;67.57
38780;BME280;29273;49.962;9.768;2023-07-29T01:50:50;99201.66;;;20.36;67.71
38780;BME280;29273;49.962;9.768;2023-07-29T01:53:15;99198.97;;;20.36;67.79
38780;BME280;29273;49.962;9.768;2023-07-29T01:55:42;99188.72;;;20.38;67.67
38780;BME280;29273;49.962;9.768;2023-07-29T01:58:07;99191.69;;;20.36;67.79
38780;BME280;29273;49.962;9.768;2023-07-29T02:00:35;99187.91;;;20.37;67.76
38780;BME280;29273;49.962;9.768;2023-07-29T02:03:01;99195.47;;;20.35;67.65
38780;BME280;29273;49.962;9.768;2023-07-29T02:05:26;99182.03;;;20.35;67.47
38780;BME280;29273;49.962;9.768;2023-07-29T02:07:52;99183.63;;;20.36;67.47
38780;BME280;29273;49.962;9.768;2023-07-29T02:10:18;99181.19;;;20.34;67.55
38780;BME280;29273;49.962;9.768;2023-07-29T02:12:43;99185.78;;;20.34;67.56
38780;BME280;29273;49.962;9.768;2023-07-29T02:15:09;99181.19;;;20.34;67.74
38780;BME280;29273;49.962;9.768;2023-07-29T02:17:35;99179.34;;;20.35;67.71
38780;BME280;29273;49.962;9.768;2023-07-29T02:20:01;99174.75;;;20.36;67.88
38780;BME280;29273;49.962;9.768;2023-07-29T02:22:26;99180.66;;;20.38;67.93
38780;BME280;29273;49.962;9.768;2023-07-29T02:24:52;99171.78;;;20.37;68.04
38780;BME280;29273;49.962;9.768;2023-07-29T02:27:17;99177.97;;;20.38;67.80
38780;BME280;29273;49.962;9.768;2023-07-29T02:29:43;99174.19;;;20.39;67.89
38780;BME280;29273;49.962;9.768;2023-07-29T02:32:08;99172.28;;;20.39;67.92
38780;BME280;29273;49.962;9.768;2023-07-29T02:34:34;99166.91;;;20.39;67.99
38780;BME280;29273;49.962;9.768;2023-07-29T02:36:59;99157.78;;;20.40;68.14
38780;BME280;29273;49.962;9.768;2023-07-29T02:39:25;99162.34;;;20.40;68.08
38780;BME280;29273;49.962;9.768;2023-07-29T02:41:51;99164.75;;;20.41;68.21
38780;BME280;29273;49.962;9.768;2023-07-29T02:44:16;99166.34;;;20.42;68.27
38780;BME280;29273;49.962;9.768;2023-07-29T02:46:42;99162.56;;;20.43;68.15
38780;BME280;29273;49.962;9.768;2023-07-29T02:49:07;99166.06;;;20.44;68.30
38780;BME280;29273;49.962;9.768;2023-07-29T02:51:33;99155.31;;;20.44;68.28
38780;BME280;29273;49.962;9.768;2023-07-29T02:53:59;99157.19;;;20.43;68.18
38780;BME280;29273;49.962;9.768;2023-07-29T02:56:24;99156.91;;;20.45;68.36
38780;BME280;29273;49.962;9.768;2023-07-29T02:58:50;99155.84;;;20.46;68.44
38780;BME280;29273;49.962;9.768;2023-07-29T03:01:17;99163.63;;;20.47;68.40
38780;BME280;29273;49.962;9.768;2023-07-29T03:03:43;99155.28;;;20.49;68.45
38780;BME280;29273;49.962;9.768;2023-07-29T03:06:11;99154.72;;;20.52;68.30
38780;BME280;29273;49.962;9.768;2023-07-29T03:08:36;99161.16;;;20.51;68.43
38780;BME280;29273;49.962;9.768;2023-07-29T03:11:07;99151.69;;;20.59;68.19
38780;BME280;29273;49.962;9.768;2023-07-29T03:13:33;99154.44;;;20.54;68.79
38780;BME280;29273;49.962;9.768;2023-07-29T03:16:06;99148.72;;;20.60;68.29
38780;BME280;29273;49.962;9.768;2023-07-29T03:18:32;99149.56;;;20.56;68.94
38780;BME280;29273;49.962;9.768;2023-07-29T03:20:57;99151.16;;;20.57;68.65
38780;BME280;29273;49.962;9.768;2023-07-29T03:23:23;99159.22;;;20.57;68.88
38780;BME280;29273;49.962;9.768;2023-07-29T03:25:49;99151.16;;;20.57;69.00
38780;BME280;29273;49.962;9.768;2023-07-29T03:28:16;99160.03;;;20.57;68.78
38780;BME280;29273;49.962;9.768;2023-07-29T03:30:42;99163.81;;;20.56;69.18
38780;BME280;29273;49.962;9.768;2023-07-29T03:33:07;99157.63;;;20.56;69.00
38780;BME280;29273;49.962;9.768;2023-07-29T03:35:33;99143.06;;;20.57;69.00
38780;BME280;29273;49.962;9.768;2023-07-29T03:37:58;99131.53;;;20.56;69.07
38780;BME280;29273;49.962;9.768;2023-07-29T03:40:24;99129.94;;;20.55;69.15
38780;BME280;29273;49.962;9.768;2023-07-29T03:42:49;99135.00;;;20.57;69.05
38780;BME280;29273;49.962;9.768;2023-07-29T03:45:15;99131.25;;;20.58;69.18
38780;BME280;29273;49.962;9.768;2023-07-29T03:47:40;99125.06;;;20.57;69.41
38780;BME280;29273;49.962;9.768;2023-07-29T03:50:06;99124.78;;;20.59;69.31
38780;BME280;29273;49.962;9.768;2023-07-29T03:52:31;99125.59;;;20.59;69.36
38780;BME280;29273;49.962;9.768;2023-07-29T03:54:57;99114.81;;;20.59;69.29
38780;BME280;29273;49.962;9.768;2023-07-29T03:57:23;99119.91;;;20.61;69.70
38780;BME280;29273;49.962;9.768;2023-07-29T03:59:48;99105.69;;;20.60;69.36
38780;BME280;29273;49.962;9.768;2023-07-29T04:02:14;99116.16;;;20.62;69.43
38780;BME280;29273;49.962;9.768;2023-07-29T04:04:41;99106.47;;;20.61;69.52
38780;BME280;29273;49.962;9.768;2023-07-29T04:07:09;99099.19;;;20.61;69.49
38780;BME280;29273;49.962;9.768;2023-07-29T04:09:34;99101.63;;;20.63;69.32
38780;BME280;29273;49.962;9.768;2023-07-29T04:12:00;99101.88;;;20.61;69.63
38780;BME280;29273;49.962;9.768;2023-07-29T04:14:26;99096.50;;;20.61;69.48
38780;BME280;29273;49.962;9.768;2023-07-29T04:16:51;99096.50;;;20.61;69.77
38780;BME280;29273;49.962;9.768;2023-07-29T04:19:17;99096.50;;;20.61;69.69
38780;BME280;29273;49.962;9.768;2023-07-29T04:21:42;99103.50;;;20.62;69.55
38780;BME280;29273;49.962;9.768;2023-07-29T04:24:08;99106.19;;;20.62;69.64
38780;BME280;29273;49.962;9.768;2023-07-29T04:26:33;99100.81;;;20.62;69.70
38780;BME280;29273;49.962;9.768;2023-07-29T04:28:59;99100.00;;;20.62;69.68
38780;BME280;29273;49.962;9.768;2023-07-29T04:31:24;99108.63;;;20.64;69.54
38780;BME280;29273;49.962;9.768;2023-07-29T04:33:51;99100.56;;;20.64;69.67
38780;BME280;29273;49.962;9.768;2023-07-29T04:36:16;99099.44;;;20.65;69.45
38780;BME280;29273;49.962;9.768;2023-07-29T04:38:44;99104.84;;;20.65;69.79
38780;BME280;29273;49.962;9.768;2023-07-29T04:41:09;99105.66;;;20.65;69.60
38780;BME280;29273;49.962;9.768;2023-07-29T04:43:34;99101.34;;;20.64;69.74
38780;BME280;29273;49.962;9.768;2023-07-29T04:46:00;99109.13;;;20.66;69.78
38780;BME280;29273;49.962;9.768;2023-07-29T04:48:26;99102.97;;;20.65;69.79
38780;BME280;29273;49.962;9.768;2023-07-29T04:50:52;99105.66;;;20.65;69.79
38780;BME280;29273;49.962;9.768;2023-07-29T04:53:17;99098.38;;;20.66;69.90
38780;BME280;29273;49.962;9.768;2023-07-29T04:55:43;99095.41;;;20.67;69.92
38780;BME280;29273;49.962;9.768;2023-07-29T04:58:09;99092.44;;;20.69;69.93
38780;BME280;29273;49.962;9.768;2023-07-29T05:00:35;99101.56;;;20.68;69.88
38780;BME280;29273;49.962;9.768;2023-07-29T05:03:02;99102.13;;;20.70;69.95
38780;BME280;29273;49.962;9.768;2023-07-29T05:05:28;99102.63;;;20.72;70.10
38780;BME280;29273;49.962;9.768;2023-07-29T05:07:54;99102.06;;;20.75;70.19
38780;BME280;29273;49.962;9.768;2023-07-29T05:10:19;99102.84;;;20.76;70.31
38780;BME280;29273;49.962;9.768;2023-07-29T05:12:45;99098.25;;;20.76;70.08
38780;BME280;29273;49.962;9.768;2023-07-29T05:15:11;99104.97;;;20.79;70.12
38780;BME280;29273;49.962;9.768;2023-07-29T05:17:36;99104.41;;;20.82;70.17
38780;BME280;29273;49.962;9.768;2023-07-29T05:20:02;99087.97;;;20.83;70.09
38780;BME280;29273;49.962;9.768;2023-07-29T05:22:28;99087.66;;;20.85;70.07
38780;BME280;29273;49.962;9.768;2023-07-29T05:24:54;99083.09;;;20.85;70.29
38780;BME280;29273;49.962;9.768;2023-07-29T05:27:19;99082.81;;;20.87;70.24
38780;BME280;29273;49.962;9.768;2023-07-29T05:29:44;99071.75;;;20.88;70.46
38780;BME280;29273;49.962;9.768;2023-07-29T05:32:10;99082.53;;;20.88;70.25
38780;BME280;29273;49.962;9.768;2023-07-29T05:34:35;99094.59;;;20.91;70.21
38780;BME280;29273;49.962;9.768;2023-07-29T05:37:01;99087.31;;;20.92;70.42
38780;BME280;29273;49.962;9.768;2023-07-29T05:39:27;99091.63;;;20.93;70.19
38780;BME280;29273;49.962;9.768;2023-07-29T05:41:52;99102.88;;;20.95;70.34
38780;BME280;29273;49.962;9.768;2023-07-29T05:44:18;99112.56;;;20.96;70.53
38780;BME280;29273;49.962;9.768;2023-07-29T05:46:43;99123.06;;;20.97;70.41
38780;BME280;29273;49.962;9.768;2023-07-29T05:49:09;99116.56;;;20.98;70.25
38780;BME280;29273;49.962;9.768;2023-07-29T05:51:34;99115.19;;;21.01;70.18
38780;BME280;29273;49.962;9.768;2023-07-29T05:54:00;99129.16;;;21.03;70.30
38780;BME280;29273;49.962;9.768;2023-07-29T05:56:25;99131.56;;;21.04;70.61
38780;BME280;29273;49.962;9.768;2023-07-29T05:58:51;99129.38;;;21.06;70.41
38780;BME280;29273;49.962;9.768;2023-07-29T06:01:18;99133.13;;;21.11;70.53
38780;BME280;29273;49.962;9.768;2023-07-29T06:03:46;99139.31;;;21.11;70.55
38780;BME280;29273;49.962;9.768;2023-07-29T06:06:12;99142.22;;;21.15;70.78
38780;BME280;29273;49.962;9.768;2023-07-29T06:08:38;99147.31;;;21.16;70.58
38780;BME280;29273;49.962;9.768;2023-07-29T06:11:03;99140.56;;;21.19;70.66
38780;BME280;29273;49.962;9.768;2023-07-29T06:13:32;99146.69;;;21.24;70.39
38780;BME280;29273;49.962;9.768;2023-07-29T06:15:57;99146.41;;;21.26;70.37
38780;BME280;29273;49.962;9.768;2023-07-29T06:18:24;99147.72;;;21.29;70.38
38780;BME280;29273;49.962;9.768;2023-07-29T06:20:51;99144.47;;;21.32;70.47
38780;BME280;29273;49.962;9.768;2023-07-29T06:23:16;99127.97;;;21.33;70.39
38780;BME280;29273;49.962;9.768;2023-07-29T06:25:42;99140.09;;;21.36;70.29
38780;BME280;29273;49.962;9.768;2023-07-29T06:28:08;99130.03;;;21.41;70.15
38780;BME280;29273;49.962;9.768;2023-07-29T06:30:34;99134.34;;;21.42;70.31
38780;BME280;29273;49.962;9.768;2023-07-29T06:32:59;99131.34;;;21.44;70.77
38780;BME280;29273;49.962;9.768;2023-07-29T06:35:25;99126.22;;;21.48;70.49
38780;BME280;29273;49.962;9.768;2023-07-29T06:37:50;99114.88;;;21.51;70.21
38780;BME280;29273;49.962;9.768;2023-07-29T06:40:16;99111.59;;;21.54;70.33
38780;BME280;29273;49.962;9.768;2023-07-29T06:42:41;99123.66;;;21.56;70.37
38780;BME280;29273;49.962;9.768;2023-07-29T06:45:07;99124.19;;;21.58;70.43
38780;BME280;29273;49.962;9.768;2023-07-29T06:47:33;99130.88;;;21.61;70.31
38780;BME280;29273;49.962;9.768;2023-07-29T06:49:58;99129.78;;;21.62;70.20
38780;BME280;29273;49.962;9.768;2023-07-29T06:52:24;99127.59;;;21.64;69.95
38780;BME280;29273;49.962;9.768;2023-07-29T06:54:49;99126.53;;;21.65;69.84
38780;BME280;29273;49.962;9.768;2023-07-29T06:57:15;99116.81;;;21.64;69.57
38780;BME280;29273;49.962;9.768;2023-07-29T06:59:40;99118.44;;;21.65;70.05
38780;BME280;29273;49.962;9.768;2023-07-29T07:02:06;99115.47;;;21.67;69.90
38780;BME280;29273;49.962;9.768;2023-07-29T07:04:32;99127.53;;;21.69;69.75
38780;BME280;29273;49.962;9.768;2023-07-29T07:06:58;99125.63;;;21.70;69.63
38780;BME280;29273;49.962;9.768;2023-07-29T07:09:23;99112.97;;;21.70;69.81
38780;BME280;29273;49.962;9.768;2023-07-29T07:11:49;99115.66;;;21.70;69.41
38780;BME280;29273;49.962;9.768;2023-07-29T07:14:14;99131.84;;;21.70;69.84
38780;BME280;29273;49.962;9.768;2023-07-29T07:16:40;99125.34;;;21.71;69.84
38780;BME280;29273;49.962;9.768;2023-07-29T07:19:05;99121.84;;;21.71;69.66
38780;BME280;29273;49.962;9.768;2023-07-29T07:21:31;99116.97;;;21.73;69.71
38780;BME280;29273;49.962;9.768;2023-07-29T07:23:58;99121.28;;;21.74;69.42
38780;BME280;29273;49.962;9.768;2023-07-29T07:26:23;99126.38;;;21.75;69.70
38780;BME280;29273;49.962;9.768;2023-07-29T07:28:49;99116.09;;;21.77;70.11
38780;BME280;29273;49.962;9.768;2023-07-29T07:31:14;99120.41;;;21.78;69.87
38780;BME280;29273;49.962;9.768;2023-07-29T07:33:41;99121.69;;;21.81;69.75
38780;BME280;29273;49.962;9.768;2023-07-29T07:36:07;99113.31;;;21.83;70.04
38780;BME280;29273;49.962;9.768;2023-07-29T07:38:32;99105.44;;;21.86;70.24
38780;BME280;29273;49.962;9.768;2023-07-29T07:40:58;99100.25;;;21.90;69.97
38780;BME280;29273;49.962;9.768;2023-07-29T07:43:24;99105.88;;;21.93;70.34
38780;BME280;29273;49.962;9.768;2023-07-29T07:45:50;99099.59;;;21.98;70.17
38780;BME280;29273;49.962;9.768;2023-07-29T07:48:15;99104.41;;;22.01;69.97
38780;BME280;29273;49.962;9.768;2023-07-29T07:50:42;99107.53;;;22.08;69.56
38780;BME280;29273;49.962;9.768;2023-07-29T07:53:08;99102.34;;;22.12;69.21
38780;BME280;29273;49.962;9.768;2023-07-29T07:55:33;99107.94;;;22.15;68.76
38780;BME280;29273;49.962;9.768;2023-07-29T07:57:59;99120.56;;;22.20;68.57
38780;BME280;29273;49.962;9.768;2023-07-29T08:00:25;99134.53;;;22.22;67.41
38780;BME280;29273;49.962;9.768;2023-07-29T08:02:50;99144.72;;;22.25;67.76
38780;BME280;29273;49.962;9.768;2023-07-29T08:05:15;99125.84;;;22.25;67.51
38780;BME280;29273;49.962;9.768;2023-07-29T08:07:41;99117.25;;;22.23;67.85
38780;BME280;29273;49.962;9.768;2023-07-29T08:10:07;99125.94;;;22.20;67.73
38780;BME280;29273;49.962;9.768;2023-07-29T08:12:32;99130.31;;;22.16;67.49
38780;BME280;29273;49.962;9.768;2023-07-29T08:14:58;99152.47;;;22.13;67.61
38780;BME280;29273;49.962;9.768;2023-07-29T08:17:23;99150.16;;;22.06;67.94
38780;BME280;29273;49.962;9.768;2023-07-29T08:19:49;99153.44;;;22.03;68.03
38780;BME280;29273;49.962;9.768;2023-07-29T08:22:14;99156.19;;;21.98;67.79
38780;BME280;29273;49.962;9.768;2023-07-29T08:24:42;99156.28;;;21.93;68.02
38780;BME280;29273;49.962;9.768;2023-07-29T08:27:08;99143.69;;;21.88;68.34
38780;BME280;29273;49.962;9.768;2023-07-29T08:29:33;99140.78;;;21.85;68.55
38780;BME280;29273;49.962;9.768;2023-07-29T08:31:59;99137.88;;;21.81;68.73
38780;BME280;29273;49.962;9.768;2023-07-29T08:34:24;99127.97;;;21.76;68.70
38780;BME280;29273;49.962;9.768;2023-07-29T08:36:50;99120.69;;;21.77;68.91
38780;BME280;29273;49.962;9.768;2023-07-29T08:39:15;99113.97;;;21.74;69.24
38780;BME280;29273;49.962;9.768;2023-07-29T08:41:49;99097.72;;;21.79;69.09
38780;BME280;29273;49.962;9.768;2023-07-29T08:44:22;99105.81;;;21.79;69.97
38780;BME280;29273;49.962;9.768;2023-07-29T08:46:49;99136.03;;;21.76;70.49
38780;BME280;29273;49.962;9.768;2023-07-29T08:49:15;99152.97;;;21.82;70.53
38780;BME280;29273;49.962;9.768;2023-07-29T08:51:49;99152.28;;;21.90;70.45
38780;BME280;29273;49.962;9.768;2023-07-29T08:54:15;99150.69;;;21.89;70.59
38780;BME280;29273;49.962;9.768;2023-07-29T08:56:42;99161.38;;;21.94;70.16
38780;BME280;29273;49.962;9.768;2023-07-29T08:59:08;99150.31;;;21.96;70.12
38780;BME280;29273;49.962;9.768;2023-07-29T09:01:34;99150.81;;;21.98;69.83
38780;BME280;29273;49.962;9.768;2023-07-29T09:04:00;99133.84;;;21.97;69.68
38780;BME280;29273;49.962;9.768;2023-07-29T09:06:26;99152.72;;;21.97;69.50
38780;BME280;29273;49.962;9.768;2023-07-29T09:08:55;99168.53;;;22.04;69.16
38780;BME280;29273;49.962;9.768;2023-07-29T09:11:21;99159.19;;;21.96;69.37
38780;BME280;29273;49.962;9.768;2023-07-29T09:13:47;99159.50;;;21.95;69.04
38780;BME280;29273;49.962;9.768;2023-07-29T09:16:13;99153.00;;;21.96;69.19
38780;BME280;29273;49.962;9.768;2023-07-29T09:18:39;99151.41;;;21.95;68.72
38780;BME280;29273;49.962;9.768;2023-07-29T09:21:04;99162.22;;;21.95;68.98
38780;BME280;29273;49.962;9.768;2023-07-29T09:23:43;99161.50;;;22.03;68.99
38780;BME280;29273;49.962;9.768;2023-07-29T09:26:10;99148.66;;;22.00;69.71
38780;BME280;29273;49.962;9.768;2023-07-29T09:28:37;99143.66;;;22.07;69.21
38780;BME280;29273;49.962;9.768;2023-07-29T09:31:03;99146.06;;;22.09;69.25
38780;BME280;29273;49.962;9.768;2023-07-29T09:33:30;99141.69;;;22.13;69.10
38780;BME280;29273;49.962;9.768;2023-07-29T09:36:00;99136.81;;;22.15;69.09
38780;BME280;29273;49.962;9.768;2023-07-29T09:38:27;99140.72;;;22.23;69.27
38780;BME280;29273;49.962;9.768;2023-07-29T09:40:56;99131.19;;;22.30;69.62
38780;BME280;29273;49.962;9.768;2023-07-29T09:43:30;99133.81;;;22.35;69.10
38780;BME280;29273;49.962;9.768;2023-07-29T09:46:00;99130.50;;;22.39;69.59
38780;BME280;29273;49.962;9.768;2023-07-29T09:48:26;99119.22;;;22.37;69.77
38780;BME280;29273;49.962;9.768;2023-07-29T09:50:54;99129.41;;;22.40;67.67
38780;BME280;29273;49.962;9.768;2023-07-29T09:53:20;99124.25;;;22.43;67.44
38780;BME280;29273;49.962;9.768;2023-07-29T09:55:47;99128.13;;;22.51;68.25
38780;BME280;29273;49.962;9.768;2023-07-29T09:58:26;99132.03;;;22.59;66.80
38780;BME280;29273;49.962;9.768;2023-07-29T10:00:52;99129.66;;;22.57;66.15
38780;BME280;29273;49.962;9.768;2023-07-29T10:03:21;99132.66;;;22.69;67.18
38780;BME280;29273;49.962;9.768;2023-07-29T10:05:47;99136.47;;;22.68;65.80
38780;BME280;29273;49.962;9.768;2023-07-29T10:08:14;99132.34;;;22.71;65.22
38780;BME280;29273;49.962;9.768;2023-07-29T10:10:42;99131.94;;;22.78;64.70
38780;BME280;29273;49.962;9.768;2023-07-29T10:13:07;99136.06;;;22.75;63.70
38780;BME280;29273;49.962;9.768;2023-07-29T10:15:33;99138.66;;;22.80;65.09
38780;BME280;29273;49.962;9.768;2023-07-29T10:17:59;99137.25;;;22.83;64.70
38780;BME280;29273;49.962;9.768;2023-07-29T10:20:24;99142.06;;;22.86;64.99
38780;BME280;29273;49.962;9.768;2023-07-29T10:22:51;99135.28;;;22.88;65.21
38780;BME280;29273;49.962;9.768;2023-07-29T10:25:24;99121.38;;;22.95;64.98
38780;BME280;29273;49.962;9.768;2023-07-29T10:28:05;99123.78;;;22.97;65.24
38780;BME280;29273;49.962;9.768;2023-07-29T10:30:32;99125.16;;;22.94;66.59
38780;BME280;29273;49.962;9.768;2023-07-29T10:32:58;99129.19;;;22.97;64.41
38780;BME280;29273;49.962;9.768;2023-07-29T10:35:26;99133.47;;;22.98;63.92
38780;BME280;29273;49.962;9.768;2023-07-29T10:37:53;99124.47;;;23.02;63.32
38780;BME280;29273;49.962;9.768;2023-07-29T10:40:19;99130.06;;;23.06;62.61
38780;BME280;29273;49.962;9.768;2023-07-29T10:43:02;99129.38;;;23.14;63.93
38780;BME280;29273;49.962;9.768;2023-07-29T10:45:39;99124.38;;;23.21;63.82
38780;BME280;29273;49.962;9.768;2023-07-29T10:48:10;99120.09;;;23.20;64.03
38780;BME280;29273;49.962;9.768;2023-07-29T10:50:35;99122.97;;;23.24;63.69
38780;BME280;29273;49.962;9.768;2023-07-29T10:53:01;99121.78;;;23.30;64.21
38780;BME280;29273;49.962;9.768;2023-07-29T10:55:33;99110.44;;;23.42;65.00
38780;BME280;29273;49.962;9.768;2023-07-29T10:58:12;99107.31;;;23.49;64.48
38780;BME280;29273;49.962;9.768;2023-07-29T11:00:38;99110.03;;;23.49;63.03
38780;BME280;29273;49.962;9.768;2023-07-29T11:03:07;99097.88;;;23.60;65.03
38780;BME280;29273;49.962;9.768;2023-07-29T11:05:44;99107.97;;;23.68;65.82
38780;BME280;29273;49.962;9.768;2023-07-29T11:08:36;99100.47;;;23.65;65.72
38780;BME280;29273;49.962;9.768;2023-07-29T11:11:06;99097.94;;;23.69;63.86
38780;BME280;29273;49.962;9.768;2023-07-29T11:13:34;99098.78;;;23.78;64.66
38780;BME280;29273;49.962;9.768;2023-07-29T11:15:59;99104.72;;;23.80;64.27
38780;BME280;29273;49.962;9.768;2023-07-29T11:18:29;99102.88;;;23.89;64.59
38780;BME280;29273;49.962;9.768;2023-07-29T11:20:56;99104.50;;;23.90;63.15
38780;BME280;29273;49.962;9.768;2023-07-29T11:23:33;99098.53;;;24.02;64.52
38780;BME280;29273;49.962;9.768;2023-07-29T11:25:59;99095.34;;;24.00;63.93
38780;BME280;29273;49.962;9.768;2023-07-29T11:28:27;99093.31;;;24.06;63.38
38780;BME280;29273;49.962;9.768;2023-07-29T11:30:54;99095.25;;;24.14;62.67
38780;BME280;29273;49.962;9.768;2023-07-29T11:33:21;99095.59;;;24.21;63.43
38780;BME280;29273;49.962;9.768;2023-07-29T11:35:47;99098.19;;;24.26;62.70
38780;BME280;29273;49.962;9.768;2023-07-29T11:38:17;99092.88;;;24.44;64.23
38780;BME280;29273;49.962;9.768;2023-07-29T11:41:00;99089.88;;;24.54;65.03
38780;BME280;29273;49.962;9.768;2023-07-29T11:43:26;99085.81;;;24.56;60.83
38780;BME280;29273;49.962;9.768;2023-07-29T11:45:52;99079.78;;;24.68;61.85
38780;BME280;29273;49.962;9.768;2023-07-29T11:48:26;99077.13;;;24.86;63.79
38780;BME280;29273;49.962;9.768;2023-07-29T11:50:53;99081.28;;;24.92;61.46
38780;BME280;29273;49.962;9.768;2023-07-29T11:53:19;99078.91;;;24.99;58.96
38780;BME280;29273;49.962;9.768;2023-07-29T11:55:44;99077.34;;;25.07;59.33
38780;BME280;29273;49.962;9.768;2023-07-29T11:58:10;99060.94;;;25.12;58.27
38780;BME280;29273;49.962;9.768;2023-07-29T12:00:35;99067.00;;;25.18;59.61
38780;BME280;29273;49.962;9.768;2023-07-29T12:03:01;99057.91;;;25.22;58.67
38780;BME280;29273;49.962;9.768;2023-07-29T12:05:27;99053.50;;;25.26;56.96
38780;BME280;29273;49.962;9.768;2023-07-29T12:07:52;99040.59;;;25.32;58.24
38780;BME280;29273;49.962;9.768;2023-07-29T12:10:18;99033.41;;;25.36;56.45
38780;BME280;29273;49.962;9.768;2023-07-29T12:12:49;99019.53;;;25.46;57.63
38780;BME280;29273;49.962;9.768;2023-07-29T12:15:25;99027.66;;;25.55;58.43
38780;BME280;29273;49.962;9.768;2023-07-29T12:17:55;99021.28;;;25.60;57.27
38780;BME280;29273;49.962;9.768;2023-07-29T12:20:22;99017.44;;;25.61;54.61
38780;BME280;29273;49.962;9.768;2023-07-29T12:23:00;99022.34;;;25.76;57.91
38780;BME280;29273;49.962;9.768;2023-07-29T12:25:31;99020.31;;;25.73;53.55
38780;BME280;29273;49.962;9.768;2023-07-29T12:28:01;99031.31;;;25.77;52.50
38780;BME280;29273;49.962;9.768;2023-07-29T12:30:27;99030.34;;;25.81;52.43
38780;BME280;29273;49.962;9.768;2023-07-29T12:32:53;99014.69;;;25.87;54.12
38780;BME280;29273;49.962;9.768;2023-07-29T12:35:18;99017.06;;;25.89;51.95
38780;BME280;29273;49.962;9.768;2023-07-29T12:37:44;99014.19;;;25.94;53.66
38780;BME280;29273;49.962;9.768;2023-07-29T12:40:23;99024.41;;;26.06;56.62
38780;BME280;29273;49.962;9.768;2023-07-29T12:42:49;99019.44;;;26.08;53.81
38780;BME280;29273;49.962;9.768;2023-07-29T12:45:16;99021.97;;;26.13;53.14
38780;BME280;29273;49.962;9.768;2023-07-29T12:47:43;99020.69;;;26.19;51.78
38780;BME280;29273;49.962;9.768;2023-07-29T12:50:09;99015.06;;;26.24;51.03
38780;BME280;29273;49.962;9.768;2023-07-29T12:52:34;99017.59;;;26.29;51.37
38780;BME280;29273;49.962;9.768;2023-07-29T12:55:00;99026.38;;;26.35;51.98
38780;BME280;29273;49.962;9.768;2023-07-29T12:57:25;99016.91;;;26.41;51.05
38780;BME280;29273;49.962;9.768;2023-07-29T12:59:50;99020.25;;;26.47;50.29
38780;BME280;29273;49.962;9.768;2023-07-29T13:02:16;99011.91;;;26.52;50.26
38780;BME280;29273;49.962;9.768;2023-07-29T13:04:41;99003.13;;;26.55;49.67